Portada
METAR-TAF:

METAR-TAF

Aeropuertos :

Béchar, Argelia

latitud: 31-37N, longitud: 002-14W, altitud: 773 m

Observación

El informe se hizo hace 1 hora y 4 minutos, a las 04:00 UTC
Viento 2 kt del este
Temperatura 8°C
Humedad 53%
Presión 1020 hPa
Visibilidad 10 km o más
sin nubes por debajo de 1500 m y sin presencia de cumulonimbus.

METAR: DAOR 150400Z 10002KT CAVOK 08/M01 Q1020

Hora: 06:04 (05:04 UTC)

Pronóstico

El informe se hizo hace 3 horas y 4 minutos, a las 02:00 UTC
Pronóstico válido del 15 a las 03 UTC al 15 a las 12 UTC
Viento 2 kt con dirección variable
Visibilidad 10 km o más
sin nubes por debajo de 1500 m y sin presencia de cumulonimbus.

TAF: DAOR 150200Z 1503/1512 VRB02KT CAVOK

Observaciones y pronósticos meteorológicos de más de 4000 aeropuertos (mensajes METAR y TAF).

Los puntos amarillos y rojos representan las estaciones disponibles.

Ponga el ratón en el punto deseado para ver el nombre de la estación.

Haga clic para ver las observaciones y los pronósticos meteorológicos.

Para cambiar el mapa : haga clic en los botones verdes con una cruz de color negro para hacer un zoom, en el botón verde con un guión para alejar o en las flechas verdes para mapas adyacentes.


METAR-TAF: